Terminal Aerodrome Forecast
Issued by NWS Medford, OR

Home | Current Version | Previous Version | Text Only | Print | Product List | Glossary On
Versions: 1 2 3 4 5 6 7 8 9 10 11 12
419
FTUS46 KMFR 242339
TAFMFR
TAF
KMFR 242339Z 2500/2524 32008G16KT P6SM SKC
     FM250400 36004KT P6SM SKC=

USA.gov is the U.S. government's official web portal to all federal, state and local government web resources and services.